Time;durP1;ratioP1;P1;durP2;ratioP2;P2;SDS_P1;SDS_P2;PMS_P1;PMS_P2;Temp;Humidity;BMP_temperature;BMP_pressure;BME280_temperature;BME280_humidity;BME280_pressure;Samples;Min_cycle;Max_cycle;Signal;HPM_P1;HPM_P2
2022/04/15 00:00:00;;;;;;;6.30;4.67;;;;;;;8.72;61.14;97652.88;5073215;28;20196;-87
2022/04/15 00:02:38;;;;;;;8.10;5.33;;;;;;;8.54;60.81;97621.59;5074337;28;20192;-95
2022/04/15 00:07:53;;;;;;;9.00;5.60;;;;;;;8.66;60.81;97610.91;5103459;28;20646;-92
2022/04/15 00:10:23;;;;;;;8.23;5.20;;;;;;;9.00;60.15;97653.75;5091630;28;20192;-94
2022/04/15 00:12:54;;;;;;;8.83;5.33;;;;;;;8.92;60.52;97622.16;5091594;28;20699;-91
2022/04/15 00:15:21;;;;;;;7.33;5.13;;;;;;;8.96;59.87;97602.25;5091739;28;20208;-86
2022/04/15 00:17:49;;;;;;;8.73;5.77;;;;;;;9.23;59.27;97610.91;5072073;28;20195;-95
2022/04/15 00:20:17;;;;;;;6.80;5.47;;;;;;;9.44;58.57;97621.41;5092077;28;20185;-93
2022/04/15 00:22:44;;;;;;;7.13;5.33;;;;;;;9.12;59.08;97589.72;5089891;28;20635;-92
2022/04/15 00:25:13;;;;;;;8.73;5.70;;;;;;;9.54;58.90;97653.81;5090834;28;20242;-94
2022/04/15 00:27:41;;;;;;;10.60;5.80;;;;;;;9.22;58.69;97607.47;5089453;28;20185;-93
2022/04/15 00:30:12;;;;;;;11.60;6.10;;;;;;;9.30;59.17;97631.31;5091320;28;20181;-85
2022/04/15 00:32:41;;;;;;;11.20;6.13;;;;;;;9.35;59.90;97650.13;5072667;28;20234;-89
2022/04/15 00:35:10;;;;;;;9.40;5.47;;;;;;;9.34;59.75;97651.00;5072153;28;20250;-85
2022/04/15 00:37:37;;;;;;;8.70;6.00;;;;;;;9.14;59.63;97630.13;5092286;28;20188;-88
2022/04/15 00:40:09;;;;;;;7.40;5.40;;;;;;;9.16;60.10;97633.50;5075078;28;20196;-92
2022/04/15 00:42:36;;;;;;;8.97;5.17;;;;;;;9.17;59.48;97636.94;5095719;28;20573;-90
2022/04/15 00:45:09;;;;;;;7.37;4.77;;;;;;;9.09;59.55;97634.56;5086232;28;20196;-88
2022/04/15 00:47:53;;;;;;;9.13;5.23;;;;;;;9.06;59.53;97628.66;5086385;28;20226;-87
2022/04/15 00:50:25;;;;;;;6.63;4.80;;;;;;;8.96;60.27;97617.75;5094884;28;20196;-91
2022/04/15 00:52:58;;;;;;;6.33;5.10;;;;;;;8.78;60.79;97629.47;5090001;28;20227;-95
2022/04/15 00:55:26;;;;;;;5.93;4.83;;;;;;;8.51;61.63;97588.13;5091564;28;20193;-93
2022/04/15 00:58:05;;;;;;;6.77;4.70;;;;;;;8.50;62.27;97633.75;5089623;28;20203;-88
2022/04/15 01:00:35;;;;;;;7.43;5.27;;;;;;;7.87;62.97;97589.03;5091849;28;20283;-95
2022/04/15 01:03:06;;;;;;;7.33;5.03;;;;;;;7.62;65.18;97595.69;5074455;28;20216;-94
2022/04/15 01:05:35;;;;;;;7.57;4.87;;;;;;;7.61;65.05;97606.88;5109251;28;20185;-93
2022/04/15 01:08:03;;;;;;;6.97;4.90;;;;;;;7.28;64.51;97541.56;5074111;28;20231;-92
2022/04/15 01:10:35;;;;;;;8.47;5.63;;;;;;;7.61;64.70;97599.13;5090165;28;20199;-91
2022/04/15 01:13:05;;;;;;;8.70;5.77;;;;;;;7.70;65.17;97630.72;5074019;28;20247;-92
2022/04/15 01:15:54;;;;;;;7.93;5.10;;;;;;;7.73;64.29;97607.41;5089825;28;20195;-89
2022/04/15 01:18:23;;;;;;;8.37;5.20;;;;;;;7.73;64.73;97610.00;5073012;28;20280;-90
2022/04/15 01:20:52;;;;;;;6.97;4.77;;;;;;;7.93;64.36;97620.63;5090877;28;20599;-92
2022/04/15 01:23:20;;;;;;;7.13;5.10;;;;;;;7.87;64.74;97607.09;5094717;28;20196;-88
2022/04/15 01:25:48;;;;;;;7.40;4.97;;;;;;;7.85;66.16;97630.31;5111387;28;20659;-89
2022/04/15 01:28:19;;;;;;;6.27;4.70;;;;;;;7.76;65.12;97633.13;5101734;28;20190;-90
2022/04/15 01:30:48;;;;;;;7.97;5.20;;;;;;;7.60;66.05;97626.66;5097317;28;20189;-92
2022/04/15 01:33:15;;;;;;;8.43;5.20;;;;;;;7.46;65.73;97612.44;5074752;28;20226;-93
2022/04/15 01:35:50;;;;;;;6.27;4.80;;;;;;;7.35;65.86;97589.50;5090097;28;20191;-94
2022/04/15 01:38:21;;;;;;;7.23;4.50;;;;;;;7.49;66.50;97632.94;5072858;28;20250;-94
2022/04/15 01:40:48;;;;;;;5.10;4.50;;;;;;;7.21;67.02;97610.41;5071614;28;20181;-92
2022/04/15 01:43:15;;;;;;;5.30;4.80;;;;;;;6.62;66.99;97502.84;5090879;28;20189;-93
2022/04/15 01:45:44;;;;;;;8.97;5.67;;;;;;;7.26;66.12;97610.31;5089499;28;20192;-96
2022/04/15 01:48:11;;;;;;;7.00;5.20;;;;;;;7.07;66.89;97575.56;5091419;28;20669;-94
2022/04/15 01:50:38;;;;;;;6.57;5.00;;;;;;;7.35;66.21;97617.84;5090271;28;20192;-94
2022/04/15 01:53:05;;;;;;;7.67;5.77;;;;;;;7.32;66.94;97620.47;5090495;28;20668;-91
2022/04/15 01:55:33;;;;;;;8.77;5.93;;;;;;;7.30;66.25;97617.94;5071969;28;20192;-95
2022/04/15 01:58:02;;;;;;;7.63;5.80;;;;;;;7.05;67.07;97577.31;5089057;28;20193;-94
2022/04/15 02:00:31;;;;;;;8.27;5.37;;;;;;;7.19;66.82;97613.94;5090860;28;20188;-95
2022/04/15 02:02:58;;;;;;;7.20;5.67;;;;;;;7.06;66.90;97584.19;5087122;28;20206;-87
2022/04/15 02:05:25;;;;;;;7.80;5.73;;;;;;;7.02;67.54;97564.53;5060380;28;20222;-93
2022/04/15 02:07:53;;;;;;;8.77;5.60;;;;;;;7.08;67.84;97579.84;5089804;28;20219;-95
2022/04/15 02:10:21;;;;;;;7.20;5.50;;;;;;;7.04;67.03;97568.78;5072520;28;20229;-90
2022/04/15 02:12:48;;;;;;;7.50;5.57;;;;;;;7.06;66.56;97586.75;5089656;28;20790;-93
2022/04/15 02:15:18;;;;;;;7.27;5.27;;;;;;;6.92;67.75;97553.63;5089705;28;20221;-95
2022/04/15 02:17:45;;;;;;;6.57;4.53;;;;;;;7.24;67.04;97606.94;5091024;28;20619;-92
2022/04/15 02:20:14;;;;;;;8.37;5.30;;;;;;;7.32;66.83;97605.00;5073141;28;20187;-91
2022/04/15 02:22:41;;;;;;;8.93;5.07;;;;;;;7.42;66.02;97614.22;5096138;28;20188;-95
2022/04/15 02:25:08;;;;;;;5.87;4.67;;;;;;;7.25;65.57;97573.41;5091608;28;20231;-91
2022/04/15 02:27:37;;;;;;;7.13;5.03;;;;;;;7.39;66.15;97598.84;5076038;28;20201;-94
2022/04/15 02:30:04;;;;;;;8.23;5.30;;;;;;;7.06;65.64;97553.28;5089079;28;20200;-94
2022/04/15 02:32:31;;;;;;;6.17;4.87;;;;;;;7.21;66.65;97568.38;5070223;28;20244;-94
2022/04/15 02:34:58;;;;;;;7.53;5.23;;;;;;;7.50;65.76;97599.41;5071475;28;20276;-90
2022/04/15 02:37:25;;;;;;;8.30;4.57;;;;;;;7.29;66.03;97587.06;5088531;28;20576;-94
2022/04/15 02:39:55;;;;;;;7.40;4.70;;;;;;;6.97;65.57;97543.19;5071701;28;20874;-94
2022/04/15 02:42:22;;;;;;;7.77;4.80;;;;;;;6.95;66.76;97552.69;5088672;28;20186;-96
2022/04/15 02:44:52;;;;;;;10.70;4.53;;;;;;;7.26;65.92;97587.97;5072734;28;20598;-90
2022/04/15 02:47:21;;;;;;;7.20;4.93;;;;;;;7.25;66.07;97593.19;5070925;28;20202;-84
2022/04/15 02:49:49;;;;;;;6.27;4.83;;;;;;;7.03;66.75;97561.06;5088061;28;20230;-85
2022/04/15 02:52:16;;;;;;;9.40;5.17;;;;;;;7.04;66.93;97567.94;5088991;28;20723;-94
2022/04/15 02:54:43;;;;;;;7.33;5.03;;;;;;;6.95;66.85;97542.38;5068861;28;20227;-87
2022/04/15 02:57:11;;;;;;;6.97;5.10;;;;;;;7.08;66.42;97580.69;5088832;28;20198;-94
2022/04/15 02:59:39;;;;;;;5.80;4.40;;;;;;;6.98;65.86;97557.78;5088239;28;20195;-86
2022/04/15 03:02:06;;;;;;;6.10;4.33;;;;;;;7.22;66.39;97588.09;5082772;28;20257;-85
2022/04/15 03:04:34;;;;;;;7.23;4.73;;;;;;;7.05;66.23;97565.31;5069710;28;20595;-87
2022/04/15 03:07:02;;;;;;;6.90;4.20;;;;;;;6.63;65.62;97493.41;5088138;28;20267;-88
2022/04/15 03:09:31;;;;;;;6.33;4.60;;;;;;;6.52;66.48;97481.63;5088816;28;20184;-85
2022/04/15 03:11:58;;;;;;;6.67;3.63;;;;;;;7.00;66.06;97554.28;5069066;28;20200;-86
2022/04/15 03:14:26;;;;;;;5.40;4.17;;;;;;;7.03;65.75;97561.06;5089073;28;20288;-85
2022/04/15 03:16:55;;;;;;;6.80;4.27;;;;;;;6.73;66.64;97510.31;5069684;28;20555;-92
2022/04/15 03:19:22;;;;;;;4.60;4.10;;;;;;;7.00;66.54;97574.03;5054791;28;20678;-85
2022/04/15 03:21:49;;;;;;;6.17;4.20;;;;;;;6.73;66.86;97551.47;5086787;28;20189;-88
2022/04/15 03:24:16;;;;;;;8.20;4.80;;;;;;;6.65;67.54;97561.97;5088983;28;20186;-85
2022/04/15 03:26:43;;;;;;;8.87;5.13;;;;;;;6.54;68.46;97567.34;5074118;28;20252;-94
2022/04/15 03:29:11;;;;;;;6.07;5.20;;;;;;;6.64;67.35;97575.69;5091478;28;20246;-88
2022/04/15 03:31:38;;;;;;;7.33;5.70;;;;;;;6.66;68.02;97544.81;5076038;28;20252;-92
2022/04/15 03:34:05;;;;;;;7.83;5.63;;;;;;;6.72;67.44;97567.81;5095649;28;20223;-85
2022/04/15 03:36:32;;;;;;;9.00;5.20;;;;;;;6.66;67.60;97567.97;5105203;28;20190;-88
2022/04/15 03:39:02;;;;;;;8.83;5.70;;;;;;;6.57;67.64;97553.56;5090800;28;20272;-94
2022/04/15 03:41:30;;;;;;;5.40;4.60;;;;;;;6.79;67.07;97589.94;5098004;28;20252;-89
2022/04/15 03:44:01;;;;;;;8.03;5.03;;;;;;;6.40;67.97;97525.63;5073862;28;21076;-94
2022/04/15 03:46:28;;;;;;;12.40;5.67;;;;;;;6.22;67.66;97500.28;5092424;28;20211;-94
2022/04/15 03:48:56;;;;;;;9.00;5.00;;;;;;;6.68;67.75;97589.38;5093865;28;20233;-93
2022/04/15 03:51:25;;;;;;;9.33;4.87;;;;;;;6.76;68.34;97590.03;5093200;28;20197;-93
2022/04/15 03:53:53;;;;;;;7.20;5.00;;;;;;;6.26;69.29;97491.66;5099616;28;20247;-91
2022/04/15 03:56:20;;;;;;;9.67;6.20;;;;;;;6.75;66.90;97565.16;5064665;28;20194;-90
2022/04/15 03:58:48;;;;;;;8.73;6.23;;;;;;;6.80;67.77;97571.06;5114568;28;20175;-88
2022/04/15 04:01:15;;;;;;;8.70;5.50;;;;;;;6.84;67.54;97585.56;5116084;28;20185;-87
2022/04/15 04:03:42;;;;;;;7.03;5.37;;;;;;;6.96;67.47;97590.44;5117408;28;20180;-90
2022/04/15 04:06:09;;;;;;;9.03;5.80;;;;;;;6.94;66.65;97587.03;5099773;28;20197;-90
2022/04/15 04:08:37;;;;;;;11.67;6.57;;;;;;;7.20;67.04;97597.59;5116439;28;20215;-86
2022/04/15 04:11:04;;;;;;;10.17;6.37;;;;;;;7.00;66.06;97563.72;5083788;28;20179;-89
2022/04/15 04:13:31;;;;;;;10.10;6.13;;;;;;;7.18;66.39;97594.19;5096135;28;20192;-95
2022/04/15 04:15:59;;;;;;;7.83;6.07;;;;;;;7.33;65.55;97591.25;5097654;28;20192;-92
2022/04/15 04:18:27;;;;;;;8.43;6.73;;;;;;;7.26;65.99;97571.69;5078635;28;20212;-94
2022/04/15 04:20:57;;;;;;;8.60;6.17;;;;;;;7.15;65.97;97571.09;5080449;28;20192;-94
2022/04/15 04:23:24;;;;;;;9.10;6.63;;;;;;;7.44;65.48;97603.88;5098693;28;20191;-96
2022/04/15 04:25:51;;;;;;;10.43;7.20;;;;;;;7.50;65.31;97572.81;5080659;28;20277;-94
2022/04/15 04:28:19;;;;;;;10.07;7.30;;;;;;;7.88;64.84;97607.03;5093297;28;20193;-95
2022/04/15 04:30:47;;;;;;;12.90;7.80;;;;;;;7.66;64.32;97556.06;5073503;28;20191;-92
2022/04/15 04:33:14;;;;;;;9.70;7.70;;;;;;;7.88;64.34;97604.44;5092384;28;20190;-95
2022/04/15 04:35:41;;;;;;;16.30;7.90;;;;;;;8.15;64.12;97600.28;5071988;28;20232;-94
2022/04/15 04:38:11;;;;;;;10.43;7.53;;;;;;;8.20;62.28;97593.28;5092673;28;20199;-90
2022/04/15 04:40:38;;;;;;;9.47;6.50;;;;;;;8.29;62.23;97602.50;5073479;28;20188;-94
2022/04/15 04:43:05;;;;;;;10.63;6.60;;;;;;;7.71;63.62;97557.63;5075085;28;20245;-91
2022/04/15 04:45:33;;;;;;;11.33;6.63;;;;;;;7.76;62.63;97568.69;5091721;28;20188;-93
2022/04/15 04:48:04;;;;;;;10.30;6.40;;;;;;;7.99;62.80;97574.09;5075404;28;20245;-93
2022/04/15 04:50:32;;;;;;;9.80;7.10;;;;;;;7.95;62.86;97566.47;5092509;28;20213;-94
2022/04/15 04:53:02;;;;;;;9.63;6.60;;;;;;;8.32;62.87;97605.03;5091568;28;20191;-86
2022/04/15 04:55:31;;;;;;;13.00;7.67;;;;;;;8.20;63.14;97586.38;5076843;28;20220;-92
2022/04/15 04:57:58;;;;;;;7.00;5.47;;;;;;;8.31;61.74;97564.59;5110816;28;20193;-91
2022/04/15 05:00:25;;;;;;;7.03;5.80;;;;;;;8.47;62.54;97607.19;5057126;28;20266;-90
2022/04/15 05:02:53;;;;;;;10.23;6.40;;;;;;;8.43;62.58;97585.75;5073219;28;20676;-94
2022/04/15 05:05:19;;;;;;;9.17;6.00;;;;;;;8.64;61.75;97584.28;5074063;28;20698;-92
2022/04/15 05:07:48;;;;;;;9.27;5.93;;;;;;;8.85;62.02;97575.91;5091236;28;20192;-90
2022/04/15 05:10:16;;;;;;;11.03;6.27;;;;;;;9.08;61.02;97586.38;5090260;28;20227;-91
2022/04/15 05:12:45;;;;;;;10.80;6.67;;;;;;;9.44;61.11;97594.69;5091223;28;20192;-91
2022/04/15 05:15:12;;;;;;;11.97;6.90;;;;;;;9.78;59.63;97596.13;5073664;28;20223;-93
2022/04/15 05:17:40;;;;;;;18.03;7.80;;;;;;;9.91;59.90;97603.47;5057486;28;20211;-89
2022/04/15 05:20:07;;;;;;;8.97;6.77;;;;;;;10.08;59.07;97604.56;5072934;28;20189;-92
2022/04/15 05:22:36;;;;;;;14.30;7.07;;;;;;;10.21;58.84;97589.50;5073492;28;20803;-94
2022/04/15 05:25:08;;;;;;;7.37;5.83;;;;;;;10.34;59.11;97588.16;5091795;28;20691;-93
2022/04/15 05:27:37;;;;;;;11.67;7.10;;;;;;;9.88;60.38;97544.06;5090486;28;20184;-94
2022/04/15 05:30:05;;;;;;;9.90;5.67;;;;;;;10.12;59.97;97563.97;5073570;28;20675;-92
2022/04/15 05:32:32;;;;;;;7.80;6.13;;;;;;;10.42;59.86;97591.31;5072448;28;20242;-93
2022/04/15 05:35:00;;;;;;;8.87;6.67;;;;;;;10.61;59.17;97584.56;5093253;28;20348;-94
2022/04/15 05:37:27;;;;;;;9.20;6.57;;;;;;;10.99;58.37;97576.19;5072975;28;20196;-94
2022/04/15 05:39:56;;;;;;;7.47;5.07;;;;;;;11.56;56.02;97591.16;5091905;28;20199;-90
2022/04/15 05:42:29;;;;;;;7.87;4.43;;;;;;;11.75;54.59;97578.31;5110046;28;20202;-88
2022/04/15 05:45:18;;;;;;;7.13;4.93;;;;;;;11.92;53.19;97566.31;5108992;28;20181;-86
2022/04/15 05:47:47;;;;;;;7.97;4.70;;;;;;;12.01;52.81;97554.72;5085863;28;20190;-91
2022/04/15 05:50:15;;;;;;;9.13;4.93;;;;;;;12.25;52.26;97569.22;5092599;28;20260;-93
2022/04/15 05:52:42;;;;;;;8.03;5.03;;;;;;;12.55;53.07;97593.81;5073542;28;20627;-92
2022/04/15 05:55:10;;;;;;;11.43;5.60;;;;;;;12.60;52.03;97591.03;5101971;28;20218;-91
2022/04/15 05:57:37;;;;;;;7.47;5.13;;;;;;;12.66;51.99;97552.63;5097974;28;20213;-87
2022/04/15 06:00:05;;;;;;;5.53;4.43;;;;;;;12.51;51.88;97545.50;5073518;28;20205;-85
2022/04/15 06:02:38;;;;;;;8.57;6.17;;;;;;;12.47;52.11;97532.75;5090792;28;20204;-83
2022/04/15 06:05:08;;;;;;;12.63;4.90;;;;;;;12.81;51.60;97572.72;5088499;28;20263;-84
2022/04/15 06:07:36;;;;;;;8.67;4.70;;;;;;;13.00;51.53;97573.50;5052301;28;20298;-85
2022/04/15 06:10:04;;;;;;;7.70;5.23;;;;;;;12.90;51.15;97541.06;5088770;28;20188;-83
2022/04/15 06:12:57;;;;;;;10.47;5.40;;;;;;;13.36;50.97;97575.31;5086886;28;20195;-86
2022/04/15 06:15:28;;;;;;;7.33;5.17;;;;;;;13.39;50.84;97546.56;5087495;28;20233;-84
2022/04/15 06:17:57;;;;;;;10.27;5.53;;;;;;;13.57;51.04;97582.94;5070963;28;20200;-85
2022/04/15 06:20:25;;;;;;;8.10;5.40;;;;;;;13.83;50.18;97571.22;5087196;28;20567;-83
2022/04/15 06:23:01;;;;;;;6.97;5.03;;;;;;;13.94;49.78;97571.53;5089250;28;20186;-82
2022/04/15 06:25:30;;;;;;;9.80;5.43;;;;;;;13.59;49.89;97542.06;5039317;28;20224;-84
2022/04/15 06:27:57;;;;;;;9.50;5.47;;;;;;;13.55;50.11;97558.75;5089750;28;20218;-84
2022/04/15 06:30:25;;;;;;;9.27;5.87;;;;;;;13.84;49.44;97570.31;5089326;28;20192;-90
2022/04/15 06:32:55;;;;;;;7.93;5.77;;;;;;;13.66;49.87;97581.66;5094412;28;20272;-93
2022/04/15 06:35:23;;;;;;;7.67;5.17;;;;;;;13.62;50.13;97570.53;5094225;28;20223;-91
2022/04/15 06:37:56;;;;;;;9.97;5.90;;;;;;;13.77;50.58;97563.72;5056908;28;20764;-92
2022/04/15 06:40:27;;;;;;;10.37;6.03;;;;;;;13.74;49.73;97554.34;5058914;28;20641;-91
2022/04/15 06:42:55;;;;;;;9.03;6.13;;;;;;;13.71;49.89;97538.84;5053634;28;20217;-84
2022/04/15 06:45:24;;;;;;;8.63;5.50;;;;;;;14.26;49.79;97582.94;5037139;28;20249;-83
2022/04/15 06:47:51;;;;;;;10.73;5.00;;;;;;;14.38;48.95;97561.47;5089119;28;20223;-85
2022/04/15 06:50:20;;;;;;;8.70;5.13;;;;;;;14.46;49.08;97578.41;5087590;28;20204;-84
2022/04/15 06:52:53;;;;;;;9.90;5.57;;;;;;;14.22;47.04;97534.53;5071079;28;20196;-82
2022/04/15 06:55:22;;;;;;;11.83;6.90;;;;;;;14.43;47.96;97559.47;5058944;28;20300;-88
2022/04/15 06:57:49;;;;;;;12.77;8.07;;;;;;;14.59;46.91;97548.13;5089424;28;20197;-84
2022/04/15 07:00:18;;;;;;;8.43;6.00;;;;;;;14.96;45.37;97565.22;5074196;28;20219;-84
2022/04/15 07:02:46;;;;;;;7.53;6.07;;;;;;;14.84;45.00;97562.47;5092816;28;20192;-83
2022/04/15 07:05:14;;;;;;;7.53;5.80;;;;;;;15.03;45.96;97566.59;5076097;28;20207;-85
2022/04/15 07:07:44;;;;;;;12.33;7.13;;;;;;;15.10;46.09;97575.78;5079383;28;20586;-84
2022/04/15 07:10:11;;;;;;;18.37;11.07;;;;;;;15.31;45.21;97560.69;5099421;28;20309;-90
2022/04/15 07:12:39;;;;;;;8.60;6.77;;;;;;;15.52;43.76;97577.75;5095723;28;20212;-85
2022/04/15 07:15:08;;;;;;;7.93;6.60;;;;;;;15.48;43.39;97555.38;5095757;28;20228;-85
2022/04/15 07:17:37;;;;;;;9.23;6.60;;;;;;;15.38;43.08;97548.97;5078949;28;20206;-86
2022/04/15 07:20:05;;;;;;;9.13;7.17;;;;;;;15.17;43.37;97524.91;5081718;28;20276;-84
2022/04/15 07:22:34;;;;;;;13.67;6.70;;;;;;;15.70;42.61;97566.28;5095168;28;20221;-87
2022/04/15 07:25:13;;;;;;;6.77;5.63;;;;;;;15.94;42.20;97557.03;5076041;28;20216;-84
2022/04/15 07:27:42;;;;;;;7.73;6.07;;;;;;;16.28;41.46;97561.91;5093505;28;20254;-84
2022/04/15 07:30:10;;;;;;;8.10;6.00;;;;;;;16.30;41.15;97515.59;5056247;28;20616;-88
2022/04/15 07:32:39;;;;;;;9.33;6.03;;;;;;;16.83;40.35;97558.59;5091602;28;20193;-88
2022/04/15 07:35:07;;;;;;;10.90;5.53;;;;;;;16.99;39.56;97567.16;5090184;28;20747;-84
2022/04/15 07:37:37;;;;;;;5.30;4.00;;;;;;;17.12;37.93;97536.66;5092308;28;20192;-83
2022/04/15 07:40:07;;;;;;;8.93;4.63;;;;;;;17.26;38.34;97556.69;5091585;28;20734;-84
2022/04/15 07:42:42;;;;;;;6.23;5.30;;;;;;;17.34;38.49;97559.66;5059291;28;20189;-84
2022/04/15 07:45:09;;;;;;;5.20;4.57;;;;;;;17.13;37.77;97514.75;5095670;28;20189;-85
2022/04/15 07:47:37;;;;;;;7.47;4.60;;;;;;;17.36;36.77;97535.06;5091146;28;20831;-87
2022/04/15 07:50:27;;;;;;;6.23;4.00;;;;;;;17.50;36.78;97549.91;5093129;28;20193;-83
2022/04/15 07:52:57;;;;;;;8.77;3.80;;;;;;;17.42;36.93;97525.97;5075505;28;20204;-85
2022/04/15 07:55:26;;;;;;;6.57;3.30;;;;;;;17.43;36.70;97519.81;5096873;28;20229;-83
2022/04/15 07:57:54;;;;;;;9.20;4.83;;;;;;;17.51;36.45;97505.31;5092336;28;20187;-84
2022/04/15 08:00:22;;;;;;;13.43;8.53;;;;;;;17.94;36.28;97544.34;5090152;28;20609;-84
2022/04/15 08:02:52;;;;;;;5.97;4.00;;;;;;;18.07;35.86;97530.34;5092316;28;20597;-83
2022/04/15 08:05:19;;;;;;;5.20;3.40;;;;;;;17.97;34.70;97544.16;5090174;28;20213;-84
2022/04/15 08:07:46;;;;;;;4.00;3.53;;;;;;;17.52;34.97;97514.81;5074166;28;20186;-85
2022/04/15 08:10:14;;;;;;;5.20;4.17;;;;;;;17.77;35.07;97522.75;5071955;28;20191;-85
2022/04/15 08:12:41;;;;;;;5.80;3.63;;;;;;;17.89;35.12;97531.56;5073165;28;20199;-84
2022/04/15 08:15:08;;;;;;;5.30;3.37;;;;;;;17.32;36.55;97530.13;5092225;28;20574;-88
2022/04/15 08:17:36;;;;;;;7.70;3.40;;;;;;;17.52;36.09;97516.59;5090620;28;20620;-85
2022/04/15 08:20:04;;;;;;;6.53;3.50;;;;;;;17.96;35.45;97529.38;5092130;28;20666;-83
2022/04/15 08:22:36;;;;;;;4.53;3.10;;;;;;;17.87;35.04;97497.59;5071961;28;20198;-85
2022/04/15 08:25:04;;;;;;;6.93;2.53;;;;;;;17.92;35.30;97509.56;5092996;28;20235;-85
2022/04/15 08:27:32;;;;;;;6.03;3.40;;;;;;;17.95;34.98;97536.38;5093518;28;20201;-87
2022/04/15 08:30:00;;;;;;;4.73;2.43;;;;;;;17.92;33.58;97523.50;5065040;28;20192;-86
2022/04/15 08:32:33;;;;;;;5.97;2.70;;;;;;;18.15;34.06;97507.06;5101905;28;20225;-87
2022/04/15 08:35:11;;;;;;;3.33;2.50;;;;;;;18.34;33.72;97496.16;5080728;28;20219;-86
2022/04/15 08:37:47;;;;;;;8.00;5.43;;;;;;;18.72;32.68;97503.97;5105213;28;20176;-85
2022/04/15 08:40:14;;;;;;;4.03;3.20;;;;;;;18.64;32.81;97491.41;5110535;28;20195;-84
2022/04/15 08:42:45;;;;;;;6.60;4.53;;;;;;;18.75;32.70;97493.25;5106713;28;20237;-84
2022/04/15 08:45:13;;;;;;;5.40;3.33;;;;;;;18.92;33.22;97504.22;5094598;28;21085;-88
2022/04/15 08:47:41;;;;;;;8.50;3.83;;;;;;;19.11;33.18;97503.75;5075613;28;20290;-87
2022/04/15 08:50:14;;;;;;;8.30;3.87;;;;;;;18.92;33.34;97469.28;5058085;28;20223;-90
2022/04/15 08:52:46;;;;;;;15.20;7.80;;;;;;;19.10;32.81;97495.00;5076007;28;20196;-85
2022/04/15 08:55:21;;;;;;;3.90;2.90;;;;;;;19.08;33.11;97490.84;5062641;28;20231;-82
2022/04/15 08:57:52;;;;;;;5.53;2.90;;;;;;;19.04;33.41;97471.84;5097432;28;20191;-85
2022/04/15 09:00:30;;;;;;;5.40;2.97;;;;;;;19.16;32.83;97465.72;5093662;28;20192;-88
2022/04/15 09:02:57;;;;;;;4.77;3.20;;;;;;;19.20;33.19;97467.16;5091004;28;20180;-84
2022/04/15 09:05:29;;;;;;;5.13;3.40;;;;;;;18.90;32.35;97426.56;5094386;28;20246;-84
2022/04/15 09:08:07;;;;;;;5.07;2.73;;;;;;;19.03;33.03;97480.66;5093318;28;20714;-85
2022/04/15 09:10:35;;;;;;;3.70;2.37;;;;;;;19.35;33.16;97481.81;5093061;28;20256;-85
2022/04/15 09:13:03;;;;;;;5.30;2.87;;;;;;;19.27;32.73;97441.25;5095895;28;20184;-85
2022/04/15 09:15:35;;;;;;;3.73;2.50;;;;;;;19.10;33.55;97479.25;5064290;28;21010;-86
2022/04/15 09:18:08;;;;;;;5.23;2.50;;;;;;;19.11;33.18;97467.81;5081091;28;20263;-84
2022/04/15 09:20:38;;;;;;;8.13;2.93;;;;;;;19.13;33.98;97470.31;5074987;28;20197;-85
2022/04/15 09:23:11;;;;;;;5.00;3.07;;;;;;;19.02;34.42;97468.47;5079003;28;20249;-86
2022/04/15 09:25:41;;;;;;;3.87;3.47;;;;;;;19.22;34.71;97453.91;5080793;28;20232;-83
2022/04/15 09:28:13;;;;;;;7.73;4.03;;;;;;;19.31;33.86;97434.81;5069406;28;20268;-84
2022/04/15 09:30:42;;;;;;;5.73;2.63;;;;;;;19.54;33.19;97438.44;5071548;28;20193;-83
2022/04/15 09:33:17;;;;;;;5.57;3.30;;;;;;;19.68;33.55;97456.63;5068881;28;20587;-85
2022/04/15 09:35:45;;;;;;;5.23;3.00;;;;;;;19.61;34.57;97450.13;5055165;28;20296;-85
2022/04/15 09:38:15;;;;;;;4.07;2.63;;;;;;;19.47;33.97;97449.38;5078027;28;20207;-84
2022/04/15 09:40:42;;;;;;;4.83;2.93;;;;;;;19.30;34.38;97434.00;5075222;28;20194;-85
2022/04/15 09:43:19;;;;;;;3.73;2.63;;;;;;;19.64;33.51;97449.91;5074087;28;20185;-84
2022/04/15 09:45:50;;;;;;;12.47;5.80;;;;;;;19.96;33.27;97450.94;5072838;28;20189;-86
2022/04/15 09:48:17;;;;;;;3.63;2.30;;;;;;;19.76;34.28;97433.22;5071890;28;20190;-85
2022/04/15 09:50:48;;;;;;;4.10;3.23;;;;;;;20.09;33.70;97441.16;5071042;28;20201;-84
2022/04/15 09:53:20;;;;;;;3.47;2.67;;;;;;;20.02;33.18;97434.69;5072241;28;20222;-85
2022/04/15 09:55:52;;;;;;;5.17;2.80;;;;;;;20.09;33.54;97430.63;5070710;28;20726;-89
2022/04/15 09:58:31;;;;;;;3.27;2.67;;;;;;;19.67;34.41;97411.09;5077768;28;20193;-88
2022/04/15 10:01:03;;;;;;;4.43;2.50;;;;;;;19.42;34.86;97424.41;5071495;28;20188;-85
2022/04/15 10:03:36;;;;;;;4.07;2.83;;;;;;;19.36;34.24;97398.59;5070053;28;20212;-90
2022/04/15 10:06:12;;;;;;;3.37;2.43;;;;;;;19.40;33.85;97398.25;5074125;28;20185;-85
2022/04/15 10:09:03;;;;;;;6.40;2.70;;;;;;;19.74;34.28;97393.06;5071510;28;20303;-95
2022/04/15 10:11:35;;;;;;;10.10;2.87;;;;;;;20.01;33.95;97404.09;5055240;28;20680;-89
2022/04/15 10:14:03;;;;;;;4.10;2.77;;;;;;;20.14;34.32;97402.16;5072429;28;20238;-96
2022/04/15 10:16:32;;;;;;;3.07;2.40;;;;;;;20.25;34.38;97399.56;5069837;28;20315;-93
2022/04/15 10:19:03;;;;;;;3.90;2.57;;;;;;;20.34;33.86;97398.00;5070860;28;20272;-87
2022/04/15 10:21:38;;;;;;;4.63;2.63;;;;;;;20.42;33.15;97403.50;5069242;28;20253;-91
2022/04/15 10:24:09;;;;;;;3.30;2.70;;;;;;;20.07;33.33;97386.03;5071097;28;20269;-87
2022/04/15 10:26:44;;;;;;;2.40;2.10;;;;;;;20.12;32.71;97381.25;5054519;28;20791;-94
2022/04/15 10:29:13;;;;;;;3.97;2.50;;;;;;;20.06;32.66;97362.47;5072380;28;20193;-88
2022/04/15 10:31:44;;;;;;;4.17;2.70;;;;;;;20.20;32.89;97354.38;5075170;28;20189;-94
2022/04/15 10:34:17;;;;;;;4.53;2.63;;;;;;;20.34;33.68;97383.03;5075051;28;20657;-91
2022/04/15 10:36:50;;;;;;;4.30;2.70;;;;;;;20.36;33.39;97344.28;5076809;28;20351;-91
2022/04/15 10:39:27;;;;;;;5.47;3.00;;;;;;;20.54;33.94;97349.91;5081281;28;20215;-86
2022/04/15 10:41:58;;;;;;;5.07;3.20;;;;;;;20.91;33.42;97365.22;5071715;28;20723;-85
2022/04/15 10:44:40;;;;;;;5.90;3.40;;;;;;;21.04;33.14;97367.72;5071039;28;20244;-85
2022/04/15 10:47:17;;;;;;;4.83;3.40;;;;;;;20.94;33.27;97364.94;5068684;28;20195;-84
2022/04/15 10:50:06;;;;;;;3.10;2.47;;;;;;;20.75;34.04;97350.78;5070681;28;20276;-89
2022/04/15 10:52:35;;;;;;;4.90;2.70;;;;;;;20.56;34.27;97356.72;5053407;28;20195;-88
2022/04/15 10:55:05;;;;;;;2.50;2.30;;;;;;;20.22;34.82;97331.41;5052408;28;20190;-87
2022/04/15 10:57:41;;;;;;;5.00;3.03;;;;;;;20.59;34.50;97345.91;5070737;28;20202;-85
2022/04/15 11:02:57;;;;;;;6.57;3.57;;;;;;;20.64;34.42;97327.13;5072689;28;20189;-86
2022/04/15 11:05:41;;;;;;;4.33;2.73;;;;;;;20.89;34.61;97337.34;5070389;28;20669;-88
2022/04/15 11:08:13;;;;;;;4.17;3.00;;;;;;;20.58;35.00;97312.69;5074240;28;20182;-85
2022/04/15 11:11:03;;;;;;;3.43;2.87;;;;;;;20.34;35.06;97340.13;5058077;28;20246;-87
2022/04/15 11:14:00;;;;;;;3.83;3.20;;;;;;;20.69;34.69;97341.59;5055557;28;20204;-83
2022/04/15 11:16:47;;;;;;;4.33;2.80;;;;;;;20.86;34.36;97327.03;5070547;28;20256;-86
2022/04/15 11:19:23;;;;;;;3.20;2.40;;;;;;;21.01;33.91;97334.53;5071419;28;20198;-86
2022/04/15 11:21:53;;;;;;;4.50;2.77;;;;;;;21.04;33.28;97325.56;5069631;28;20187;-87
2022/04/15 11:24:32;;;;;;;3.30;2.93;;;;;;;21.20;33.75;97335.66;5070380;28;20194;-91
2022/04/15 11:27:03;;;;;;;6.60;2.80;;;;;;;21.06;34.15;97299.94;5067732;28;20275;-85
2022/04/15 11:29:33;;;;;;;3.83;3.00;;;;;;;20.29;35.82;97301.03;5054371;28;20222;-86
2022/04/15 11:32:06;;;;;;;5.47;3.40;;;;;;;20.70;35.49;97327.47;5072769;28;20570;-86
2022/04/15 11:34:37;;;;;;;6.27;3.10;;;;;;;20.98;35.31;97316.34;5072424;28;20184;-86
2022/04/15 11:37:09;;;;;;;3.60;3.13;;;;;;;21.03;35.46;97314.19;5073787;28;20720;-85
2022/04/15 11:39:45;;;;;;;4.47;2.97;;;;;;;21.02;34.77;97274.81;5072162;28;20194;-88
2022/04/15 11:42:12;;;;;;;4.10;2.30;;;;;;;21.30;33.35;97289.97;5072132;28;20190;-87
2022/04/15 11:44:44;;;;;;;6.03;3.13;;;;;;;21.04;34.25;97273.72;5070800;28;20243;-90
2022/04/15 11:47:21;;;;;;;6.40;2.70;;;;;;;21.18;34.53;97271.72;5076544;28;20194;-87
2022/04/15 11:49:51;;;;;;;3.77;2.90;;;;;;;21.42;34.05;97264.38;5072329;28;20253;-87
2022/04/15 11:52:26;;;;;;;4.83;2.63;;;;;;;21.39;33.63;97217.22;5077180;28;20197;-88
2022/04/15 11:54:58;;;;;;;4.37;2.20;;;;;;;21.57;33.16;97281.50;5073195;28;20685;-85